sensor_id;sensor_type;location;lat;lon;timestamp;temperature;humidity
5041;DHT22;2539;52.568;13.364;2023-06-10T00:02:00;15.20;99.90
5041;DHT22;2539;52.568;13.364;2023-06-10T00:04:27;15.20;99.90
5041;DHT22;2539;52.568;13.364;2023-06-10T00:06:53;15.20;99.90
5041;DHT22;2539;52.568;13.364;2023-06-10T00:09:19;15.10;99.90
5041;DHT22;2539;52.568;13.364;2023-06-10T00:11:47;15.10;99.90
5041;DHT22;2539;52.568;13.364;2023-06-10T00:14:13;15.10;99.90
5041;DHT22;2539;52.568;13.364;2023-06-10T00:16:39;15.00;99.90
5041;DHT22;2539;52.568;13.364;2023-06-10T00:19:05;15.00;99.90
5041;DHT22;2539;52.568;13.364;2023-06-10T00:21:33;15.00;99.90
5041;DHT22;2539;52.568;13.364;2023-06-10T00:24:04;15.00;99.90
5041;DHT22;2539;52.568;13.364;2023-06-10T00:26:31;15.00;99.90
5041;DHT22;2539;52.568;13.364;2023-06-10T00:29:01;15.00;99.90
5041;DHT22;2539;52.568;13.364;2023-06-10T00:31:28;15.10;99.90
5041;DHT22;2539;52.568;13.364;2023-06-10T00:33:54;15.10;99.90
5041;DHT22;2539;52.568;13.364;2023-06-10T00:36:21;15.00;99.90
5041;DHT22;2539;52.568;13.364;2023-06-10T00:38:47;15.00;99.90
5041;DHT22;2539;52.568;13.364;2023-06-10T00:41:14;15.00;99.90
5041;DHT22;2539;52.568;13.364;2023-06-10T00:43:40;14.90;99.90
5041;DHT22;2539;52.568;13.364;2023-06-10T00:46:06;14.90;99.90
5041;DHT22;2539;52.568;13.364;2023-06-10T00:48:33;14.90;99.90
5041;DHT22;2539;52.568;13.364;2023-06-10T00:51:00;14.90;99.90
5041;DHT22;2539;52.568;13.364;2023-06-10T00:53:26;14.80;99.90
5041;DHT22;2539;52.568;13.364;2023-06-10T00:55:53;14.80;99.90
5041;DHT22;2539;52.568;13.364;2023-06-10T00:58:20;14.80;99.90
5041;DHT22;2539;52.568;13.364;2023-06-10T01:00:46;14.80;99.90
5041;DHT22;2539;52.568;13.364;2023-06-10T01:03:13;14.70;99.90
5041;DHT22;2539;52.568;13.364;2023-06-10T01:05:39;14.70;99.90
5041;DHT22;2539;52.568;13.364;2023-06-10T01:10:48;14.60;99.90
5041;DHT22;2539;52.568;13.364;2023-06-10T01:13:16;14.60;99.90
5041;DHT22;2539;52.568;13.364;2023-06-10T01:15:44;14.60;99.90
5041;DHT22;2539;52.568;13.364;2023-06-10T01:18:10;14.60;99.90
5041;DHT22;2539;52.568;13.364;2023-06-10T01:20:42;14.50;99.90
5041;DHT22;2539;52.568;13.364;2023-06-10T01:23:10;14.50;99.90
5041;DHT22;2539;52.568;13.364;2023-06-10T01:25:41;15.70;99.90
5041;DHT22;2539;52.568;13.364;2023-06-10T01:28:14;14.40;99.90
5041;DHT22;2539;52.568;13.364;2023-06-10T01:33:21;14.50;99.90
5041;DHT22;2539;52.568;13.364;2023-06-10T01:35:50;14.40;99.90
5041;DHT22;2539;52.568;13.364;2023-06-10T01:38:18;14.30;99.90
5041;DHT22;2539;52.568;13.364;2023-06-10T01:40:46;14.30;99.90
5041;DHT22;2539;52.568;13.364;2023-06-10T01:43:12;14.30;99.90
5041;DHT22;2539;52.568;13.364;2023-06-10T01:45:37;14.30;99.90
5041;DHT22;2539;52.568;13.364;2023-06-10T01:48:04;14.30;99.90
5041;DHT22;2539;52.568;13.364;2023-06-10T01:50:31;14.20;99.90
5041;DHT22;2539;52.568;13.364;2023-06-10T01:52:59;14.20;99.90
5041;DHT22;2539;52.568;13.364;2023-06-10T01:55:25;14.20;99.90
5041;DHT22;2539;52.568;13.364;2023-06-10T01:57:52;14.20;99.90
5041;DHT22;2539;52.568;13.364;2023-06-10T02:00:18;14.10;99.90
5041;DHT22;2539;52.568;13.364;2023-06-10T02:02:44;14.10;99.90
5041;DHT22;2539;52.568;13.364;2023-06-10T02:05:10;14.10;99.90
5041;DHT22;2539;52.568;13.364;2023-06-10T02:07:36;14.10;99.90
5041;DHT22;2539;52.568;13.364;2023-06-10T02:10:01;14.10;99.90
5041;DHT22;2539;52.568;13.364;2023-06-10T02:12:28;14.10;99.90
5041;DHT22;2539;52.568;13.364;2023-06-10T02:14:54;14.10;99.90
5041;DHT22;2539;52.568;13.364;2023-06-10T02:17:20;12.80;99.90
5041;DHT22;2539;52.568;13.364;2023-06-10T02:19:46;14.10;99.90
5041;DHT22;2539;52.568;13.364;2023-06-10T02:22:22;14.00;99.90
5041;DHT22;2539;52.568;13.364;2023-06-10T02:24:48;14.00;99.90
5041;DHT22;2539;52.568;13.364;2023-06-10T02:27:15;14.10;99.90
5041;DHT22;2539;52.568;13.364;2023-06-10T02:29:42;14.10;99.90
5041;DHT22;2539;52.568;13.364;2023-06-10T02:32:09;14.20;99.90
5041;DHT22;2539;52.568;13.364;2023-06-10T02:34:36;14.10;99.90
5041;DHT22;2539;52.568;13.364;2023-06-10T02:37:02;14.00;99.90
5041;DHT22;2539;52.568;13.364;2023-06-10T02:39:29;14.00;99.90
5041;DHT22;2539;52.568;13.364;2023-06-10T02:41:56;13.90;99.90
5041;DHT22;2539;52.568;13.364;2023-06-10T02:44:22;14.00;99.90
5041;DHT22;2539;52.568;13.364;2023-06-10T02:46:48;13.90;99.90
5041;DHT22;2539;52.568;13.364;2023-06-10T02:49:14;13.90;99.90
5041;DHT22;2539;52.568;13.364;2023-06-10T02:51:41;13.90;99.90
5041;DHT22;2539;52.568;13.364;2023-06-10T02:54:07;13.90;99.90
5041;DHT22;2539;52.568;13.364;2023-06-10T02:56:33;13.90;99.90
5041;DHT22;2539;52.568;13.364;2023-06-10T02:59:00;13.80;99.90
5041;DHT22;2539;52.568;13.364;2023-06-10T03:01:26;13.80;99.90
5041;DHT22;2539;52.568;13.364;2023-06-10T03:03:52;13.80;99.90
5041;DHT22;2539;52.568;13.364;2023-06-10T03:06:19;13.80;99.90
5041;DHT22;2539;52.568;13.364;2023-06-10T03:08:45;13.80;99.90
5041;DHT22;2539;52.568;13.364;2023-06-10T03:11:12;13.80;99.90
5041;DHT22;2539;52.568;13.364;2023-06-10T03:13:38;13.80;99.90
5041;DHT22;2539;52.568;13.364;2023-06-10T03:16:06;13.80;99.90
5041;DHT22;2539;52.568;13.364;2023-06-10T03:18:32;13.80;99.90
5041;DHT22;2539;52.568;13.364;2023-06-10T03:20:59;13.80;99.90
5041;DHT22;2539;52.568;13.364;2023-06-10T03:23:25;13.80;99.90
5041;DHT22;2539;52.568;13.364;2023-06-10T03:25:53;13.80;99.90
5041;DHT22;2539;52.568;13.364;2023-06-10T03:28:21;13.80;99.90
5041;DHT22;2539;52.568;13.364;2023-06-10T03:30:48;13.80;99.90
5041;DHT22;2539;52.568;13.364;2023-06-10T03:33:14;13.80;99.90
5041;DHT22;2539;52.568;13.364;2023-06-10T03:35:41;13.80;99.90
5041;DHT22;2539;52.568;13.364;2023-06-10T03:38:07;13.90;99.90
5041;DHT22;2539;52.568;13.364;2023-06-10T03:40:34;13.90;99.90
5041;DHT22;2539;52.568;13.364;2023-06-10T03:43:00;13.90;99.90
5041;DHT22;2539;52.568;13.364;2023-06-10T03:45:26;14.00;99.90
5041;DHT22;2539;52.568;13.364;2023-06-10T03:47:53;13.90;99.90
5041;DHT22;2539;52.568;13.364;2023-06-10T03:50:19;14.00;99.90
5041;DHT22;2539;52.568;13.364;2023-06-10T03:52:45;14.00;99.90
5041;DHT22;2539;52.568;13.364;2023-06-10T03:55:13;14.10;99.90
5041;DHT22;2539;52.568;13.364;2023-06-10T03:57:39;14.10;99.90
5041;DHT22;2539;52.568;13.364;2023-06-10T04:00:06;14.10;99.90
5041;DHT22;2539;52.568;13.364;2023-06-10T04:02:40;14.10;99.90
5041;DHT22;2539;52.568;13.364;2023-06-10T04:05:12;14.10;99.90
5041;DHT22;2539;52.568;13.364;2023-06-10T04:07:38;14.10;99.90
5041;DHT22;2539;52.568;13.364;2023-06-10T04:10:09;14.10;99.90
5041;DHT22;2539;52.568;13.364;2023-06-10T04:12:36;14.10;99.90
5041;DHT22;2539;52.568;13.364;2023-06-10T04:15:03;14.20;99.90
5041;DHT22;2539;52.568;13.364;2023-06-10T04:17:30;14.20;99.90
5041;DHT22;2539;52.568;13.364;2023-06-10T04:19:57;14.20;99.90
5041;DHT22;2539;52.568;13.364;2023-06-10T04:22:24;14.20;99.90
5041;DHT22;2539;52.568;13.364;2023-06-10T04:24:50;14.20;99.90
5041;DHT22;2539;52.568;13.364;2023-06-10T04:27:16;14.30;99.90
5041;DHT22;2539;52.568;13.364;2023-06-10T04:29:43;14.40;99.90
5041;DHT22;2539;52.568;13.364;2023-06-10T04:32:09;14.40;99.90
5041;DHT22;2539;52.568;13.364;2023-06-10T04:34:36;16.40;99.90
5041;DHT22;2539;52.568;13.364;2023-06-10T04:37:05;14.50;99.90
5041;DHT22;2539;52.568;13.364;2023-06-10T04:39:31;13.80;99.90
5041;DHT22;2539;52.568;13.364;2023-06-10T04:41:58;14.60;99.90
5041;DHT22;2539;52.568;13.364;2023-06-10T04:44:24;14.60;99.90
5041;DHT22;2539;52.568;13.364;2023-06-10T04:46:50;14.60;99.90
5041;DHT22;2539;52.568;13.364;2023-06-10T04:49:16;14.60;99.90
5041;DHT22;2539;52.568;13.364;2023-06-10T04:51:42;14.70;99.90
5041;DHT22;2539;52.568;13.364;2023-06-10T04:54:08;14.00;99.90
5041;DHT22;2539;52.568;13.364;2023-06-10T04:56:34;14.70;99.90
5041;DHT22;2539;52.568;13.364;2023-06-10T04:59:00;14.80;99.90
5041;DHT22;2539;52.568;13.364;2023-06-10T05:01:27;14.70;99.90
5041;DHT22;2539;52.568;13.364;2023-06-10T05:03:53;14.80;99.90
5041;DHT22;2539;52.568;13.364;2023-06-10T05:06:20;14.90;99.90
5041;DHT22;2539;52.568;13.364;2023-06-10T05:08:46;15.00;99.90
5041;DHT22;2539;52.568;13.364;2023-06-10T05:11:13;15.10;99.90
5041;DHT22;2539;52.568;13.364;2023-06-10T05:13:41;15.10;99.90
5041;DHT22;2539;52.568;13.364;2023-06-10T05:16:07;15.10;99.90
5041;DHT22;2539;52.568;13.364;2023-06-10T05:18:34;15.30;99.90
5041;DHT22;2539;52.568;13.364;2023-06-10T05:21:01;18.00;99.90
5041;DHT22;2539;52.568;13.364;2023-06-10T05:25:55;15.50;99.90
5041;DHT22;2539;52.568;13.364;2023-06-10T05:30:48;15.70;99.90
5041;DHT22;2539;52.568;13.364;2023-06-10T05:33:14;15.90;99.90
5041;DHT22;2539;52.568;13.364;2023-06-10T05:35:40;16.10;99.90
5041;DHT22;2539;52.568;13.364;2023-06-10T05:38:07;16.50;99.90
5041;DHT22;2539;52.568;13.364;2023-06-10T05:40:33;16.80;99.90
5041;DHT22;2539;52.568;13.364;2023-06-10T05:42:59;16.90;99.90
5041;DHT22;2539;52.568;13.364;2023-06-10T05:45:27;17.00;99.90
5041;DHT22;2539;52.568;13.364;2023-06-10T05:47:53;17.10;99.90
5041;DHT22;2539;52.568;13.364;2023-06-10T05:50:19;17.10;99.90
5041;DHT22;2539;52.568;13.364;2023-06-10T05:52:46;17.10;99.90
5041;DHT22;2539;52.568;13.364;2023-06-10T05:55:12;17.30;99.90
5041;DHT22;2539;52.568;13.364;2023-06-10T05:57:40;17.50;99.90
5041;DHT22;2539;52.568;13.364;2023-06-10T06:00:07;17.70;99.90
5041;DHT22;2539;52.568;13.364;2023-06-10T06:02:34;17.70;99.90
5041;DHT22;2539;52.568;13.364;2023-06-10T06:05:00;17.70;99.90
5041;DHT22;2539;52.568;13.364;2023-06-10T06:07:26;17.60;99.90
5041;DHT22;2539;52.568;13.364;2023-06-10T06:09:53;17.60;99.90
5041;DHT22;2539;52.568;13.364;2023-06-10T06:12:19;17.70;99.90
5041;DHT22;2539;52.568;13.364;2023-06-10T06:14:45;17.80;99.90
5041;DHT22;2539;52.568;13.364;2023-06-10T06:17:12;17.90;99.90
5041;DHT22;2539;52.568;13.364;2023-06-10T06:19:38;18.00;99.90
5041;DHT22;2539;52.568;13.364;2023-06-10T06:22:04;18.00;99.90
5041;DHT22;2539;52.568;13.364;2023-06-10T06:24:31;18.00;99.90
5041;DHT22;2539;52.568;13.364;2023-06-10T06:26:57;18.00;99.90
5041;DHT22;2539;52.568;13.364;2023-06-10T06:29:23;18.10;99.90
5041;DHT22;2539;52.568;13.364;2023-06-10T06:31:50;18.10;99.90
5041;DHT22;2539;52.568;13.364;2023-06-10T06:34:16;18.20;99.90
5041;DHT22;2539;52.568;13.364;2023-06-10T06:36:42;18.30;99.90
5041;DHT22;2539;52.568;13.364;2023-06-10T06:39:07;20.30;99.90
5041;DHT22;2539;52.568;13.364;2023-06-10T06:41:33;18.60;99.90
5041;DHT22;2539;52.568;13.364;2023-06-10T06:43:58;18.60;99.90
5041;DHT22;2539;52.568;13.364;2023-06-10T06:46:25;18.80;99.90
5041;DHT22;2539;52.568;13.364;2023-06-10T06:48:51;18.90;99.90
5041;DHT22;2539;52.568;13.364;2023-06-10T06:51:17;19.00;99.90
5041;DHT22;2539;52.568;13.364;2023-06-10T06:53:44;19.00;99.90
5041;DHT22;2539;52.568;13.364;2023-06-10T06:56:12;19.20;99.90
5041;DHT22;2539;52.568;13.364;2023-06-10T06:58:38;19.10;99.90
5041;DHT22;2539;52.568;13.364;2023-06-10T07:01:04;19.10;99.90
5041;DHT22;2539;52.568;13.364;2023-06-10T07:03:31;19.20;99.90
5041;DHT22;2539;52.568;13.364;2023-06-10T07:05:58;19.10;99.90
5041;DHT22;2539;52.568;13.364;2023-06-10T07:08:24;19.20;99.90
5041;DHT22;2539;52.568;13.364;2023-06-10T07:10:50;19.40;99.90
5041;DHT22;2539;52.568;13.364;2023-06-10T07:15:43;19.50;99.90
5041;DHT22;2539;52.568;13.364;2023-06-10T07:18:10;19.80;99.90
5041;DHT22;2539;52.568;13.364;2023-06-10T07:20:36;20.10;99.90
5041;DHT22;2539;52.568;13.364;2023-06-10T07:23:03;20.50;99.90
5041;DHT22;2539;52.568;13.364;2023-06-10T07:25:29;20.60;99.90
5041;DHT22;2539;52.568;13.364;2023-06-10T07:27:55;20.80;99.90
5041;DHT22;2539;52.568;13.364;2023-06-10T07:33:01;20.90;99.90
5041;DHT22;2539;52.568;13.364;2023-06-10T07:35:28;21.00;99.90
5041;DHT22;2539;52.568;13.364;2023-06-10T07:37:54;21.00;99.90
5041;DHT22;2539;52.568;13.364;2023-06-10T07:40:20;21.00;99.90
5041;DHT22;2539;52.568;13.364;2023-06-10T07:42:46;21.10;99.90
5041;DHT22;2539;52.568;13.364;2023-06-10T07:45:13;21.10;99.90
5041;DHT22;2539;52.568;13.364;2023-06-10T07:47:38;21.30;99.90
5041;DHT22;2539;52.568;13.364;2023-06-10T07:50:04;21.50;99.90
5041;DHT22;2539;52.568;13.364;2023-06-10T07:52:30;21.60;99.90
5041;DHT22;2539;52.568;13.364;2023-06-10T07:54:56;21.80;99.90
5041;DHT22;2539;52.568;13.364;2023-06-10T07:57:22;22.10;99.90
5041;DHT22;2539;52.568;13.364;2023-06-10T07:59:49;21.90;99.90
5041;DHT22;2539;52.568;13.364;2023-06-10T08:02:15;21.70;99.90
5041;DHT22;2539;52.568;13.364;2023-06-10T08:04:41;21.60;99.90
5041;DHT22;2539;52.568;13.364;2023-06-10T08:07:08;21.50;99.90
5041;DHT22;2539;52.568;13.364;2023-06-10T08:09:34;21.60;99.90
5041;DHT22;2539;52.568;13.364;2023-06-10T08:12:02;21.50;99.90
5041;DHT22;2539;52.568;13.364;2023-06-10T08:14:28;21.50;99.90
5041;DHT22;2539;52.568;13.364;2023-06-10T08:16:54;21.40;99.90
5041;DHT22;2539;52.568;13.364;2023-06-10T08:19:21;21.50;99.90
5041;DHT22;2539;52.568;13.364;2023-06-10T08:21:47;21.50;99.90
5041;DHT22;2539;52.568;13.364;2023-06-10T08:24:13;21.60;99.90
5041;DHT22;2539;52.568;13.364;2023-06-10T08:26:42;21.90;99.90
5041;DHT22;2539;52.568;13.364;2023-06-10T08:29:08;22.20;99.90
5041;DHT22;2539;52.568;13.364;2023-06-10T08:31:34;22.50;99.90
5041;DHT22;2539;52.568;13.364;2023-06-10T08:34:01;22.80;99.90
5041;DHT22;2539;52.568;13.364;2023-06-10T08:36:27;22.70;99.90
5041;DHT22;2539;52.568;13.364;2023-06-10T08:38:54;22.40;99.90
5041;DHT22;2539;52.568;13.364;2023-06-10T08:41:21;22.30;99.90
5041;DHT22;2539;52.568;13.364;2023-06-10T08:44:09;22.20;99.90
5041;DHT22;2539;52.568;13.364;2023-06-10T08:46:36;22.00;99.90
5041;DHT22;2539;52.568;13.364;2023-06-10T08:49:05;21.80;99.90
5041;DHT22;2539;52.568;13.364;2023-06-10T08:51:32;21.60;99.90
5041;DHT22;2539;52.568;13.364;2023-06-10T08:54:10;21.40;99.90
5041;DHT22;2539;52.568;13.364;2023-06-10T08:56:39;21.20;99.90
5041;DHT22;2539;52.568;13.364;2023-06-10T08:59:05;21.10;99.90
5041;DHT22;2539;52.568;13.364;2023-06-10T09:01:31;21.30;99.90
5041;DHT22;2539;52.568;13.364;2023-06-10T09:03:58;21.30;99.90
5041;DHT22;2539;52.568;13.364;2023-06-10T09:06:25;21.30;99.90
5041;DHT22;2539;52.568;13.364;2023-06-10T09:08:52;21.20;99.90
5041;DHT22;2539;52.568;13.364;2023-06-10T09:11:18;21.10;99.90
5041;DHT22;2539;52.568;13.364;2023-06-10T09:13:44;21.10;99.90
5041;DHT22;2539;52.568;13.364;2023-06-10T09:16:10;21.10;99.90
5041;DHT22;2539;52.568;13.364;2023-06-10T09:18:37;21.00;99.90
5041;DHT22;2539;52.568;13.364;2023-06-10T09:21:03;20.90;99.90
5041;DHT22;2539;52.568;13.364;2023-06-10T09:23:29;21.00;99.90
5041;DHT22;2539;52.568;13.364;2023-06-10T09:25:56;20.90;99.90
5041;DHT22;2539;52.568;13.364;2023-06-10T09:28:24;20.70;99.90
5041;DHT22;2539;52.568;13.364;2023-06-10T09:31:04;20.70;99.90
5041;DHT22;2539;52.568;13.364;2023-06-10T09:33:31;20.00;99.90
5041;DHT22;2539;52.568;13.364;2023-06-10T09:35:57;18.70;99.90
5041;DHT22;2539;52.568;13.364;2023-06-10T09:38:31;17.50;99.90
5041;DHT22;2539;52.568;13.364;2023-06-10T09:40:58;17.00;99.90
5041;DHT22;2539;52.568;13.364;2023-06-10T09:43:41;16.80;99.90
5041;DHT22;2539;52.568;13.364;2023-06-10T09:46:19;16.80;99.90
5041;DHT22;2539;52.568;13.364;2023-06-10T09:48:46;16.90;99.90
5041;DHT22;2539;52.568;13.364;2023-06-10T09:51:15;17.10;99.90
5041;DHT22;2539;52.568;13.364;2023-06-10T09:53:43;17.40;99.90
5041;DHT22;2539;52.568;13.364;2023-06-10T09:56:13;17.50;99.90
5041;DHT22;2539;52.568;13.364;2023-06-10T09:58:39;17.50;99.90
5041;DHT22;2539;52.568;13.364;2023-06-10T10:01:11;17.50;99.90
5041;DHT22;2539;52.568;13.364;2023-06-10T10:03:50;17.60;99.90
5041;DHT22;2539;52.568;13.364;2023-06-10T10:06:18;17.70;99.90
5041;DHT22;2539;52.568;13.364;2023-06-10T10:08:46;17.90;99.90
5041;DHT22;2539;52.568;13.364;2023-06-10T10:11:12;17.90;99.90
5041;DHT22;2539;52.568;13.364;2023-06-10T10:13:40;18.10;99.90
5041;DHT22;2539;52.568;13.364;2023-06-10T10:16:15;17.90;99.90
5041;DHT22;2539;52.568;13.364;2023-06-10T10:18:45;17.50;99.90
5041;DHT22;2539;52.568;13.364;2023-06-10T10:21:14;17.40;99.90
5041;DHT22;2539;52.568;13.364;2023-06-10T10:26:32;17.60;99.90
5041;DHT22;2539;52.568;13.364;2023-06-10T10:29:11;17.50;99.90
5041;DHT22;2539;52.568;13.364;2023-06-10T10:31:42;17.60;99.90
5041;DHT22;2539;52.568;13.364;2023-06-10T10:34:15;17.60;99.90
5041;DHT22;2539;52.568;13.364;2023-06-10T10:36:43;17.80;99.90
5041;DHT22;2539;52.568;13.364;2023-06-10T10:39:09;17.80;99.90
5041;DHT22;2539;52.568;13.364;2023-06-10T10:41:37;17.60;99.90
5041;DHT22;2539;52.568;13.364;2023-06-10T10:44:06;17.70;99.90
5041;DHT22;2539;52.568;13.364;2023-06-10T10:46:50;17.60;99.90
5041;DHT22;2539;52.568;13.364;2023-06-10T10:49:18;17.70;99.90
5041;DHT22;2539;52.568;13.364;2023-06-10T10:51:55;17.70;99.90
5041;DHT22;2539;52.568;13.364;2023-06-10T10:54:48;17.80;99.90
5041;DHT22;2539;52.568;13.364;2023-06-10T10:57:21;17.90;99.90
5041;DHT22;2539;52.568;13.364;2023-06-10T11:02:33;18.20;99.90
5041;DHT22;2539;52.568;13.364;2023-06-10T11:05:02;18.30;99.90
5041;DHT22;2539;52.568;13.364;2023-06-10T11:07:33;18.40;99.90
5041;DHT22;2539;52.568;13.364;2023-06-10T11:10:11;18.40;99.90
5041;DHT22;2539;52.568;13.364;2023-06-10T11:15:13;19.00;99.90
5041;DHT22;2539;52.568;13.364;2023-06-10T11:18:14;19.00;99.90
5041;DHT22;2539;52.568;13.364;2023-06-10T11:23:10;19.20;99.90
5041;DHT22;2539;52.568;13.364;2023-06-10T11:25:40;19.40;99.90
5041;DHT22;2539;52.568;13.364;2023-06-10T11:28:27;19.60;99.90
5041;DHT22;2539;52.568;13.364;2023-06-10T11:30:59;19.90;99.90
5041;DHT22;2539;52.568;13.364;2023-06-10T11:33:26;20.10;99.90
5041;DHT22;2539;52.568;13.364;2023-06-10T11:35:52;20.70;99.90
5041;DHT22;2539;52.568;13.364;2023-06-10T11:38:18;20.30;99.90
5041;DHT22;2539;52.568;13.364;2023-06-10T11:40:48;20.20;99.90
5041;DHT22;2539;52.568;13.364;2023-06-10T11:43:19;20.20;99.90
5041;DHT22;2539;52.568;13.364;2023-06-10T11:45:46;20.30;99.90
5041;DHT22;2539;52.568;13.364;2023-06-10T11:48:12;20.30;99.90
5041;DHT22;2539;52.568;13.364;2023-06-10T11:50:39;20.60;99.90
5041;DHT22;2539;52.568;13.364;2023-06-10T11:53:08;20.80;99.90
5041;DHT22;2539;52.568;13.364;2023-06-10T11:55:46;21.00;99.90
5041;DHT22;2539;52.568;13.364;2023-06-10T11:58:14;21.00;99.90
5041;DHT22;2539;52.568;13.364;2023-06-10T12:00:55;21.50;99.90
5041;DHT22;2539;52.568;13.364;2023-06-10T12:03:25;21.70;99.90
5041;DHT22;2539;52.568;13.364;2023-06-10T12:06:02;21.90;99.90
5041;DHT22;2539;52.568;13.364;2023-06-10T12:08:30;22.00;99.90
5041;DHT22;2539;52.568;13.364;2023-06-10T12:10:57;22.10;99.90
5041;DHT22;2539;52.568;13.364;2023-06-10T12:13:25;22.10;99.90
5041;DHT22;2539;52.568;13.364;2023-06-10T12:15:52;22.30;99.90
5041;DHT22;2539;52.568;13.364;2023-06-10T12:18:22;22.40;99.90
5041;DHT22;2539;52.568;13.364;2023-06-10T12:20:48;22.50;99.90
5041;DHT22;2539;52.568;13.364;2023-06-10T12:23:15;22.90;99.90
5041;DHT22;2539;52.568;13.364;2023-06-10T12:25:55;23.40;99.90
5041;DHT22;2539;52.568;13.364;2023-06-10T12:28:23;23.80;99.90
5041;DHT22;2539;52.568;13.364;2023-06-10T12:30:50;24.30;99.90
5041;DHT22;2539;52.568;13.364;2023-06-10T12:33:20;24.50;99.90
5041;DHT22;2539;52.568;13.364;2023-06-10T12:35:51;24.80;99.90
5041;DHT22;2539;52.568;13.364;2023-06-10T12:38:22;25.00;99.90
5041;DHT22;2539;52.568;13.364;2023-06-10T12:40:48;25.20;99.90
5041;DHT22;2539;52.568;13.364;2023-06-10T12:43:19;25.30;99.90
5041;DHT22;2539;52.568;13.364;2023-06-10T12:45:46;25.60;99.90
5041;DHT22;2539;52.568;13.364;2023-06-10T12:48:18;25.80;99.90
5041;DHT22;2539;52.568;13.364;2023-06-10T12:50:53;26.00;99.90
5041;DHT22;2539;52.568;13.364;2023-06-10T12:53:21;26.00;99.90
5041;DHT22;2539;52.568;13.364;2023-06-10T12:55:50;26.00;99.90
5041;DHT22;2539;52.568;13.364;2023-06-10T12:58:18;26.10;99.90
5041;DHT22;2539;52.568;13.364;2023-06-10T13:00:45;26.20;99.90
5041;DHT22;2539;52.568;13.364;2023-06-10T13:03:12;26.10;99.90
5041;DHT22;2539;52.568;13.364;2023-06-10T13:05:38;26.00;99.90
5041;DHT22;2539;52.568;13.364;2023-06-10T13:08:08;25.90;99.90
5041;DHT22;2539;52.568;13.364;2023-06-10T13:10:38;26.00;99.90
5041;DHT22;2539;52.568;13.364;2023-06-10T13:13:04;26.00;99.90
5041;DHT22;2539;52.568;13.364;2023-06-10T13:15:32;27.70;99.90
5041;DHT22;2539;52.568;13.364;2023-06-10T13:18:02;26.10;99.90
5041;DHT22;2539;52.568;13.364;2023-06-10T13:20:29;26.20;99.90
5041;DHT22;2539;52.568;13.364;2023-06-10T13:22:55;26.40;99.90
5041;DHT22;2539;52.568;13.364;2023-06-10T13:25:22;26.40;99.90
5041;DHT22;2539;52.568;13.364;2023-06-10T13:27:49;26.50;99.90
5041;DHT22;2539;52.568;13.364;2023-06-10T13:30:15;26.30;99.90
5041;DHT22;2539;52.568;13.364;2023-06-10T13:32:42;26.40;99.90
5041;DHT22;2539;52.568;13.364;2023-06-10T13:35:08;26.50;99.90
5041;DHT22;2539;52.568;13.364;2023-06-10T13:37:34;26.50;99.90
5041;DHT22;2539;52.568;13.364;2023-06-10T13:40:01;26.60;99.90
5041;DHT22;2539;52.568;13.364;2023-06-10T13:42:28;26.60;99.90
5041;DHT22;2539;52.568;13.364;2023-06-10T13:44:55;26.50;99.90
5041;DHT22;2539;52.568;13.364;2023-06-10T13:47:22;26.70;99.90
5041;DHT22;2539;52.568;13.364;2023-06-10T13:49:48;26.80;99.90
5041;DHT22;2539;52.568;13.364;2023-06-10T13:52:15;26.80;99.80
5041;DHT22;2539;52.568;13.364;2023-06-10T13:54:41;26.80;99.60
5041;DHT22;2539;52.568;13.364;2023-06-10T13:57:08;26.80;99.30
5041;DHT22;2539;52.568;13.364;2023-06-10T13:59:35;26.90;99.40
5041;DHT22;2539;52.568;13.364;2023-06-10T14:02:01;27.10;98.60
5041;DHT22;2539;52.568;13.364;2023-06-10T14:04:27;27.10;98.20
5041;DHT22;2539;52.568;13.364;2023-06-10T14:06:52;27.20;99.00
5041;DHT22;2539;52.568;13.364;2023-06-10T14:09:19;27.20;99.00
5041;DHT22;2539;52.568;13.364;2023-06-10T14:11:45;27.20;98.10
5041;DHT22;2539;52.568;13.364;2023-06-10T14:14:11;27.10;98.60
5041;DHT22;2539;52.568;13.364;2023-06-10T14:16:38;27.20;98.00
5041;DHT22;2539;52.568;13.364;2023-06-10T14:19:04;27.10;97.60
5041;DHT22;2539;52.568;13.364;2023-06-10T14:21:30;27.10;97.60
5041;DHT22;2539;52.568;13.364;2023-06-10T14:23:56;27.10;97.10
5041;DHT22;2539;52.568;13.364;2023-06-10T14:26:23;27.20;97.10
5041;DHT22;2539;52.568;13.364;2023-06-10T14:28:49;27.70;95.70
5041;DHT22;2539;52.568;13.364;2023-06-10T14:31:16;28.10;95.10
5041;DHT22;2539;52.568;13.364;2023-06-10T14:33:42;28.70;93.60
5041;DHT22;2539;52.568;13.364;2023-06-10T14:36:10;29.20;92.00
5041;DHT22;2539;52.568;13.364;2023-06-10T14:38:38;29.50;91.20
5041;DHT22;2539;52.568;13.364;2023-06-10T14:41:04;29.60;89.10
5041;DHT22;2539;52.568;13.364;2023-06-10T14:43:30;29.70;87.50
5041;DHT22;2539;52.568;13.364;2023-06-10T14:45:56;30.10;87.70
5041;DHT22;2539;52.568;13.364;2023-06-10T14:48:23;30.40;85.30
5041;DHT22;2539;52.568;13.364;2023-06-10T14:50:49;30.40;84.10
5041;DHT22;2539;52.568;13.364;2023-06-10T14:53:21;30.60;82.70
5041;DHT22;2539;52.568;13.364;2023-06-10T14:55:47;30.80;82.40
5041;DHT22;2539;52.568;13.364;2023-06-10T14:58:13;31.00;80.70
5041;DHT22;2539;52.568;13.364;2023-06-10T15:00:40;31.40;78.90
5041;DHT22;2539;52.568;13.364;2023-06-10T15:03:06;31.60;78.00
5041;DHT22;2539;52.568;13.364;2023-06-10T15:05:32;31.80;73.60
5041;DHT22;2539;52.568;13.364;2023-06-10T15:08:00;31.50;72.30
5041;DHT22;2539;52.568;13.364;2023-06-10T15:10:26;31.40;71.50
5041;DHT22;2539;52.568;13.364;2023-06-10T15:12:53;31.40;71.90
5041;DHT22;2539;52.568;13.364;2023-06-10T15:15:23;31.70;70.80
5041;DHT22;2539;52.568;13.364;2023-06-10T15:17:48;32.10;69.30
5041;DHT22;2539;52.568;13.364;2023-06-10T15:20:14;32.10;68.40
5041;DHT22;2539;52.568;13.364;2023-06-10T15:22:40;32.20;67.80
5041;DHT22;2539;52.568;13.364;2023-06-10T15:25:06;32.10;66.60
5041;DHT22;2539;52.568;13.364;2023-06-10T15:27:32;32.00;67.20
5041;DHT22;2539;52.568;13.364;2023-06-10T15:29:58;32.30;66.00
5041;DHT22;2539;52.568;13.364;2023-06-10T15:32:25;32.10;64.80
5041;DHT22;2539;52.568;13.364;2023-06-10T15:34:51;31.80;64.70
5041;DHT22;2539;52.568;13.364;2023-06-10T15:37:19;31.00;64.20
5041;DHT22;2539;52.568;13.364;2023-06-10T15:39:47;30.10;65.60
5041;DHT22;2539;52.568;13.364;2023-06-10T15:42:13;29.50;67.70
5041;DHT22;2539;52.568;13.364;2023-06-10T15:44:40;29.10;68.60
5041;DHT22;2539;52.568;13.364;2023-06-10T15:47:06;28.80;69.60
5041;DHT22;2539;52.568;13.364;2023-06-10T15:49:32;28.70;69.60
5041;DHT22;2539;52.568;13.364;2023-06-10T15:51:59;28.40;70.20
5041;DHT22;2539;52.568;13.364;2023-06-10T15:54:25;28.20;71.00
5041;DHT22;2539;52.568;13.364;2023-06-10T15:56:51;28.10;71.90
5041;DHT22;2539;52.568;13.364;2023-06-10T15:59:17;27.90;72.30
5041;DHT22;2539;52.568;13.364;2023-06-10T16:01:44;27.70;72.80
5041;DHT22;2539;52.568;13.364;2023-06-10T16:04:10;27.50;73.30
5041;DHT22;2539;52.568;13.364;2023-06-10T16:06:37;27.30;74.00
5041;DHT22;2539;52.568;13.364;2023-06-10T16:09:03;27.20;74.40
5041;DHT22;2539;52.568;13.364;2023-06-10T16:11:29;27.20;74.90
5041;DHT22;2539;52.568;13.364;2023-06-10T16:13:56;27.20;75.40